sensor_id;sensor_type;location;lat;lon;timestamp;P1;durP1;ratioP1;P2;durP2;ratioP2
72676;SDS011;60755;51.374;10.662;2023-08-07T00:01:56;3.57;;;3.37;;
72676;SDS011;60755;51.374;10.662;2023-08-07T00:04:23;4.50;;;4.10;;
72676;SDS011;60755;51.374;10.662;2023-08-07T00:06:50;4.50;;;4.20;;
72676;SDS011;60755;51.374;10.662;2023-08-07T00:09:18;4.37;;;4.17;;
72676;SDS011;60755;51.374;10.662;2023-08-07T00:11:45;5.20;;;4.20;;
72676;SDS011;60755;51.374;10.662;2023-08-07T00:14:12;6.37;;;3.90;;
72676;SDS011;60755;51.374;10.662;2023-08-07T00:16:40;4.40;;;4.10;;
72676;SDS011;60755;51.374;10.662;2023-08-07T00:19:07;4.57;;;4.27;;
72676;SDS011;60755;51.374;10.662;2023-08-07T00:21:34;6.37;;;4.93;;
72676;SDS011;60755;51.374;10.662;2023-08-07T00:24:03;4.67;;;4.23;;
72676;SDS011;60755;51.374;10.662;2023-08-07T00:26:32;5.40;;;4.90;;
72676;SDS011;60755;51.374;10.662;2023-08-07T00:28:59;5.83;;;5.33;;
72676;SDS011;60755;51.374;10.662;2023-08-07T00:31:25;6.10;;;5.30;;
72676;SDS011;60755;51.374;10.662;2023-08-07T00:33:56;5.87;;;5.37;;
72676;SDS011;60755;51.374;10.662;2023-08-07T00:36:23;5.43;;;5.00;;
72676;SDS011;60755;51.374;10.662;2023-08-07T00:38:51;6.00;;;5.30;;
72676;SDS011;60755;51.374;10.662;2023-08-07T00:41:17;5.63;;;5.13;;
72676;SDS011;60755;51.374;10.662;2023-08-07T00:43:46;5.83;;;5.20;;
72676;SDS011;60755;51.374;10.662;2023-08-07T00:46:13;5.03;;;4.73;;
72676;SDS011;60755;51.374;10.662;2023-08-07T00:48:40;4.83;;;4.33;;
72676;SDS011;60755;51.374;10.662;2023-08-07T00:51:08;4.50;;;4.20;;
72676;SDS011;60755;51.374;10.662;2023-08-07T00:53:37;4.10;;;3.70;;
72676;SDS011;60755;51.374;10.662;2023-08-07T00:56:04;4.10;;;3.80;;
72676;SDS011;60755;51.374;10.662;2023-08-07T00:58:31;5.23;;;4.37;;
72676;SDS011;60755;51.374;10.662;2023-08-07T01:01:01;4.50;;;4.20;;
72676;SDS011;60755;51.374;10.662;2023-08-07T01:03:28;4.67;;;4.20;;
72676;SDS011;60755;51.374;10.662;2023-08-07T01:05:55;6.17;;;4.27;;
72676;SDS011;60755;51.374;10.662;2023-08-07T01:08:22;4.50;;;4.10;;
72676;SDS011;60755;51.374;10.662;2023-08-07T01:10:59;4.33;;;3.90;;
72676;SDS011;60755;51.374;10.662;2023-08-07T01:13:37;6.17;;;4.20;;
72676;SDS011;60755;51.374;10.662;2023-08-07T01:16:14;4.50;;;3.73;;
72676;SDS011;60755;51.374;10.662;2023-08-07T01:18:45;5.17;;;3.80;;
72676;SDS011;60755;51.374;10.662;2023-08-07T01:21:17;3.63;;;3.33;;
72676;SDS011;60755;51.374;10.662;2023-08-07T01:23:46;3.53;;;3.23;;
72676;SDS011;60755;51.374;10.662;2023-08-07T01:26:14;3.23;;;2.93;;
72676;SDS011;60755;51.374;10.662;2023-08-07T01:28:46;3.40;;;3.10;;
72676;SDS011;60755;51.374;10.662;2023-08-07T01:31:20;6.57;;;3.07;;
72676;SDS011;60755;51.374;10.662;2023-08-07T01:33:52;3.00;;;2.90;;
72676;SDS011;60755;51.374;10.662;2023-08-07T01:36:24;2.90;;;2.70;;
72676;SDS011;60755;51.374;10.662;2023-08-07T01:38:55;2.63;;;2.50;;
72676;SDS011;60755;51.374;10.662;2023-08-07T01:41:25;2.40;;;2.30;;
72676;SDS011;60755;51.374;10.662;2023-08-07T01:43:52;2.40;;;2.30;;
72676;SDS011;60755;51.374;10.662;2023-08-07T01:46:20;3.60;;;2.53;;
72676;SDS011;60755;51.374;10.662;2023-08-07T01:48:47;2.30;;;2.20;;
72676;SDS011;60755;51.374;10.662;2023-08-07T01:51:14;2.17;;;2.10;;
72676;SDS011;60755;51.374;10.662;2023-08-07T01:53:41;2.47;;;2.27;;
72676;SDS011;60755;51.374;10.662;2023-08-07T01:56:10;2.87;;;2.50;;
72676;SDS011;60755;51.374;10.662;2023-08-07T01:58:37;2.30;;;2.20;;
72676;SDS011;60755;51.374;10.662;2023-08-07T02:01:04;2.20;;;2.10;;
72676;SDS011;60755;51.374;10.662;2023-08-07T02:03:31;3.30;;;2.37;;
72676;SDS011;60755;51.374;10.662;2023-08-07T02:05:59;3.03;;;2.73;;
72676;SDS011;60755;51.374;10.662;2023-08-07T02:08:27;2.90;;;2.70;;
72676;SDS011;60755;51.374;10.662;2023-08-07T02:10:54;4.57;;;3.10;;
72676;SDS011;60755;51.374;10.662;2023-08-07T02:13:22;3.47;;;3.17;;
72676;SDS011;60755;51.374;10.662;2023-08-07T02:15:49;3.83;;;3.27;;
72676;SDS011;60755;51.374;10.662;2023-08-07T02:18:16;4.80;;;3.40;;
72676;SDS011;60755;51.374;10.662;2023-08-07T02:20:43;3.40;;;3.20;;
72676;SDS011;60755;51.374;10.662;2023-08-07T02:23:11;4.00;;;3.70;;
72676;SDS011;60755;51.374;10.662;2023-08-07T02:25:38;3.83;;;3.53;;
72676;SDS011;60755;51.374;10.662;2023-08-07T02:28:05;3.80;;;3.50;;
72676;SDS011;60755;51.374;10.662;2023-08-07T02:30:34;4.40;;;3.70;;
72676;SDS011;60755;51.374;10.662;2023-08-07T02:33:01;3.63;;;3.33;;
72676;SDS011;60755;51.374;10.662;2023-08-07T02:35:28;3.37;;;3.10;;
72676;SDS011;60755;51.374;10.662;2023-08-07T02:37:55;4.67;;;3.80;;
72676;SDS011;60755;51.374;10.662;2023-08-07T02:40:21;3.10;;;2.90;;
72676;SDS011;60755;51.374;10.662;2023-08-07T02:42:48;3.10;;;2.90;;
72676;SDS011;60755;51.374;10.662;2023-08-07T02:45:15;4.10;;;2.97;;
72676;SDS011;60755;51.374;10.662;2023-08-07T02:47:44;4.30;;;3.53;;
72676;SDS011;60755;51.374;10.662;2023-08-07T02:50:11;3.53;;;3.33;;
72676;SDS011;60755;51.374;10.662;2023-08-07T02:52:38;6.77;;;4.17;;
72676;SDS011;60755;51.374;10.662;2023-08-07T02:55:05;7.13;;;4.00;;
72676;SDS011;60755;51.374;10.662;2023-08-07T02:57:32;4.20;;;3.80;;
72676;SDS011;60755;51.374;10.662;2023-08-07T02:59:59;5.37;;;4.37;;
72676;SDS011;60755;51.374;10.662;2023-08-07T03:02:26;3.90;;;3.60;;
72676;SDS011;60755;51.374;10.662;2023-08-07T03:04:55;5.33;;;4.10;;
72676;SDS011;60755;51.374;10.662;2023-08-07T03:07:22;4.00;;;3.70;;
72676;SDS011;60755;51.374;10.662;2023-08-07T03:09:49;4.40;;;4.07;;
72676;SDS011;60755;51.374;10.662;2023-08-07T03:12:16;4.00;;;3.60;;
72676;SDS011;60755;51.374;10.662;2023-08-07T03:14:43;7.27;;;3.83;;
72676;SDS011;60755;51.374;10.662;2023-08-07T03:17:10;4.17;;;3.77;;
72676;SDS011;60755;51.374;10.662;2023-08-07T03:19:37;4.40;;;4.00;;
72676;SDS011;60755;51.374;10.662;2023-08-07T03:22:05;3.87;;;3.57;;
72676;SDS011;60755;51.374;10.662;2023-08-07T03:24:32;4.27;;;3.87;;
72676;SDS011;60755;51.374;10.662;2023-08-07T03:26:59;3.43;;;3.23;;
72676;SDS011;60755;51.374;10.662;2023-08-07T03:29:26;3.50;;;3.23;;
72676;SDS011;60755;51.374;10.662;2023-08-07T03:31:54;6.57;;;3.90;;
72676;SDS011;60755;51.374;10.662;2023-08-07T03:34:21;3.53;;;3.30;;
72676;SDS011;60755;51.374;10.662;2023-08-07T03:36:48;3.43;;;3.23;;
72676;SDS011;60755;51.374;10.662;2023-08-07T03:39:16;3.60;;;3.33;;
72676;SDS011;60755;51.374;10.662;2023-08-07T03:41:43;3.20;;;3.00;;
72676;SDS011;60755;51.374;10.662;2023-08-07T03:44:11;2.90;;;2.70;;
72676;SDS011;60755;51.374;10.662;2023-08-07T03:46:38;2.73;;;2.43;;
72676;SDS011;60755;51.374;10.662;2023-08-07T03:49:05;2.97;;;2.77;;
72676;SDS011;60755;51.374;10.662;2023-08-07T03:51:32;2.67;;;2.47;;
72676;SDS011;60755;51.374;10.662;2023-08-07T03:53:59;4.03;;;2.87;;
72676;SDS011;60755;51.374;10.662;2023-08-07T03:56:27;3.10;;;2.23;;
72676;SDS011;60755;51.374;10.662;2023-08-07T03:58:58;2.50;;;2.33;;
72676;SDS011;60755;51.374;10.662;2023-08-07T04:01:25;2.00;;;2.00;;
72676;SDS011;60755;51.374;10.662;2023-08-07T04:03:52;2.27;;;2.07;;
72676;SDS011;60755;51.374;10.662;2023-08-07T04:06:19;1.97;;;1.87;;
72676;SDS011;60755;51.374;10.662;2023-08-07T04:08:47;2.30;;;2.13;;
72676;SDS011;60755;51.374;10.662;2023-08-07T04:11:14;2.30;;;2.20;;
72676;SDS011;60755;51.374;10.662;2023-08-07T04:13:42;2.30;;;2.20;;
72676;SDS011;60755;51.374;10.662;2023-08-07T04:16:09;2.00;;;1.90;;
72676;SDS011;60755;51.374;10.662;2023-08-07T04:18:36;1.93;;;1.93;;
72676;SDS011;60755;51.374;10.662;2023-08-07T04:21:04;1.90;;;1.77;;
72676;SDS011;60755;51.374;10.662;2023-08-07T04:23:31;1.70;;;1.70;;
72676;SDS011;60755;51.374;10.662;2023-08-07T04:25:58;1.90;;;1.80;;
72676;SDS011;60755;51.374;10.662;2023-08-07T04:28:27;2.83;;;2.00;;
72676;SDS011;60755;51.374;10.662;2023-08-07T04:30:56;1.80;;;1.70;;
72676;SDS011;60755;51.374;10.662;2023-08-07T04:33:23;2.00;;;1.90;;
72676;SDS011;60755;51.374;10.662;2023-08-07T04:35:50;2.00;;;1.90;;
72676;SDS011;60755;51.374;10.662;2023-08-07T04:38:17;1.90;;;1.90;;
72676;SDS011;60755;51.374;10.662;2023-08-07T04:40:44;2.20;;;2.00;;
72676;SDS011;60755;51.374;10.662;2023-08-07T04:43:12;2.87;;;1.80;;
72676;SDS011;60755;51.374;10.662;2023-08-07T04:45:39;1.87;;;1.77;;
72676;SDS011;60755;51.374;10.662;2023-08-07T04:48:08;1.73;;;1.60;;
72676;SDS011;60755;51.374;10.662;2023-08-07T04:50:35;1.60;;;1.60;;
72676;SDS011;60755;51.374;10.662;2023-08-07T04:53:02;1.47;;;1.47;;
72676;SDS011;60755;51.374;10.662;2023-08-07T04:55:29;1.50;;;1.50;;
72676;SDS011;60755;51.374;10.662;2023-08-07T04:57:56;5.00;;;1.83;;
72676;SDS011;60755;51.374;10.662;2023-08-07T05:00:23;2.10;;;1.93;;
72676;SDS011;60755;51.374;10.662;2023-08-07T05:02:50;1.87;;;1.77;;
72676;SDS011;60755;51.374;10.662;2023-08-07T05:05:19;2.20;;;1.60;;
72676;SDS011;60755;51.374;10.662;2023-08-07T05:07:46;1.90;;;1.80;;
72676;SDS011;60755;51.374;10.662;2023-08-07T05:10:14;1.93;;;1.83;;
72676;SDS011;60755;51.374;10.662;2023-08-07T05:12:41;3.50;;;1.80;;
72676;SDS011;60755;51.374;10.662;2023-08-07T05:15:08;1.70;;;1.70;;
72676;SDS011;60755;51.374;10.662;2023-08-07T05:17:36;1.90;;;1.80;;
72676;SDS011;60755;51.374;10.662;2023-08-07T05:20:03;1.60;;;1.60;;
72676;SDS011;60755;51.374;10.662;2023-08-07T05:22:32;1.70;;;1.70;;
72676;SDS011;60755;51.374;10.662;2023-08-07T05:24:59;1.90;;;1.80;;
72676;SDS011;60755;51.374;10.662;2023-08-07T05:27:29;1.63;;;1.63;;
72676;SDS011;60755;51.374;10.662;2023-08-07T05:29:56;1.70;;;1.60;;
72676;SDS011;60755;51.374;10.662;2023-08-07T05:32:23;1.30;;;1.30;;
72676;SDS011;60755;51.374;10.662;2023-08-07T05:34:50;1.40;;;1.40;;
72676;SDS011;60755;51.374;10.662;2023-08-07T05:37:16;1.40;;;1.30;;
72676;SDS011;60755;51.374;10.662;2023-08-07T05:39:45;1.50;;;1.40;;
72676;SDS011;60755;51.374;10.662;2023-08-07T05:42:12;1.73;;;1.60;;
72676;SDS011;60755;51.374;10.662;2023-08-07T05:44:39;1.70;;;1.53;;
72676;SDS011;60755;51.374;10.662;2023-08-07T05:47:06;2.23;;;1.80;;
72676;SDS011;60755;51.374;10.662;2023-08-07T05:49:33;1.88;;;1.77;;
72676;SDS011;60755;51.374;10.662;2023-08-07T05:52:07;1.77;;;1.77;;
72676;SDS011;60755;51.374;10.662;2023-08-07T05:54:34;2.00;;;1.90;;
72676;SDS011;60755;51.374;10.662;2023-08-07T05:57:03;1.93;;;1.83;;
72676;SDS011;60755;51.374;10.662;2023-08-07T05:59:30;1.87;;;1.70;;
72676;SDS011;60755;51.374;10.662;2023-08-07T06:01:59;3.57;;;2.03;;
72676;SDS011;60755;51.374;10.662;2023-08-07T06:04:27;1.90;;;1.80;;
72676;SDS011;60755;51.374;10.662;2023-08-07T06:06:54;2.97;;;2.37;;
72676;SDS011;60755;51.374;10.662;2023-08-07T06:09:21;2.90;;;2.70;;
72676;SDS011;60755;51.374;10.662;2023-08-07T06:11:48;3.90;;;2.17;;
72676;SDS011;60755;51.374;10.662;2023-08-07T06:14:16;2.40;;;2.30;;
72676;SDS011;60755;51.374;10.662;2023-08-07T06:16:43;2.47;;;2.37;;
72676;SDS011;60755;51.374;10.662;2023-08-07T06:19:10;2.20;;;2.10;;
72676;SDS011;60755;51.374;10.662;2023-08-07T06:21:37;2.37;;;2.27;;
72676;SDS011;60755;51.374;10.662;2023-08-07T06:24:04;4.20;;;2.20;;
72676;SDS011;60755;51.374;10.662;2023-08-07T06:26:32;2.50;;;2.37;;
72676;SDS011;60755;51.374;10.662;2023-08-07T06:28:58;2.53;;;2.43;;
72676;SDS011;60755;51.374;10.662;2023-08-07T06:31:27;2.63;;;2.53;;
72676;SDS011;60755;51.374;10.662;2023-08-07T06:33:54;2.87;;;2.63;;
72676;SDS011;60755;51.374;10.662;2023-08-07T06:36:21;3.00;;;2.80;;
72676;SDS011;60755;51.374;10.662;2023-08-07T06:38:51;2.27;;;2.17;;
72676;SDS011;60755;51.374;10.662;2023-08-07T06:41:19;3.23;;;2.97;;
72676;SDS011;60755;51.374;10.662;2023-08-07T06:43:45;3.00;;;2.80;;
72676;SDS011;60755;51.374;10.662;2023-08-07T06:46:12;2.80;;;2.70;;
72676;SDS011;60755;51.374;10.662;2023-08-07T06:48:41;3.07;;;2.97;;
72676;SDS011;60755;51.374;10.662;2023-08-07T06:51:08;3.17;;;2.93;;
72676;SDS011;60755;51.374;10.662;2023-08-07T06:53:36;3.20;;;3.10;;
72676;SDS011;60755;51.374;10.662;2023-08-07T06:56:05;4.13;;;3.40;;
72676;SDS011;60755;51.374;10.662;2023-08-07T06:58:38;3.00;;;2.87;;
72676;SDS011;60755;51.374;10.662;2023-08-07T07:01:07;3.10;;;2.80;;
72676;SDS011;60755;51.374;10.662;2023-08-07T07:03:34;4.23;;;3.10;;
72676;SDS011;60755;51.374;10.662;2023-08-07T07:06:02;3.50;;;3.30;;
72676;SDS011;60755;51.374;10.662;2023-08-07T07:08:29;2.87;;;2.77;;
72676;SDS011;60755;51.374;10.662;2023-08-07T07:10:56;4.28;;;3.20;;
72676;SDS011;60755;51.374;10.662;2023-08-07T07:13:27;8.83;;;6.47;;
72676;SDS011;60755;51.374;10.662;2023-08-07T07:15:54;3.10;;;2.90;;
72676;SDS011;60755;51.374;10.662;2023-08-07T07:18:21;4.97;;;3.60;;
72676;SDS011;60755;51.374;10.662;2023-08-07T07:20:56;2.63;;;2.42;;
72676;SDS011;60755;51.374;10.662;2023-08-07T07:23:25;3.10;;;2.85;;
72676;SDS011;60755;51.374;10.662;2023-08-07T07:25:52;2.33;;;2.30;;
72676;SDS011;60755;51.374;10.662;2023-08-07T07:28:20;1.95;;;1.83;;
72676;SDS011;60755;51.374;10.662;2023-08-07T07:30:47;1.67;;;1.67;;
72676;SDS011;60755;51.374;10.662;2023-08-07T07:33:13;2.95;;;1.83;;
72676;SDS011;60755;51.374;10.662;2023-08-07T07:35:41;1.85;;;1.75;;
72676;SDS011;60755;51.374;10.662;2023-08-07T07:38:09;1.75;;;1.75;;
72676;SDS011;60755;51.374;10.662;2023-08-07T07:40:38;1.92;;;1.67;;
72676;SDS011;60755;51.374;10.662;2023-08-07T07:43:05;1.48;;;1.48;;
72676;SDS011;60755;51.374;10.662;2023-08-07T07:45:32;1.50;;;1.40;;
72676;SDS011;60755;51.374;10.662;2023-08-07T07:47:59;1.60;;;1.50;;
72676;SDS011;60755;51.374;10.662;2023-08-07T07:50:28;1.20;;;1.20;;
72676;SDS011;60755;51.374;10.662;2023-08-07T07:52:55;1.05;;;1.05;;
72676;SDS011;60755;51.374;10.662;2023-08-07T07:55:22;1.20;;;1.20;;
72676;SDS011;60755;51.374;10.662;2023-08-07T07:57:50;1.13;;;1.10;;
72676;SDS011;60755;51.374;10.662;2023-08-07T08:00:18;0.93;;;0.93;;
72676;SDS011;60755;51.374;10.662;2023-08-07T08:02:46;1.15;;;1.00;;
72676;SDS011;60755;51.374;10.662;2023-08-07T08:05:13;1.45;;;0.90;;
72676;SDS011;60755;51.374;10.662;2023-08-07T08:07:41;1.00;;;1.00;;
72676;SDS011;60755;51.374;10.662;2023-08-07T08:10:11;1.10;;;1.10;;
72676;SDS011;60755;51.374;10.662;2023-08-07T08:12:38;1.30;;;1.30;;
72676;SDS011;60755;51.374;10.662;2023-08-07T08:15:07;1.15;;;1.05;;
72676;SDS011;60755;51.374;10.662;2023-08-07T08:17:35;1.20;;;1.20;;
72676;SDS011;60755;51.374;10.662;2023-08-07T08:20:02;1.23;;;1.23;;
72676;SDS011;60755;51.374;10.662;2023-08-07T08:22:29;1.10;;;1.10;;
72676;SDS011;60755;51.374;10.662;2023-08-07T08:24:56;1.50;;;1.40;;
72676;SDS011;60755;51.374;10.662;2023-08-07T08:27:23;1.23;;;1.23;;
72676;SDS011;60755;51.374;10.662;2023-08-07T08:29:53;1.40;;;1.40;;
72676;SDS011;60755;51.374;10.662;2023-08-07T08:32:21;1.85;;;1.85;;
72676;SDS011;60755;51.374;10.662;2023-08-07T08:34:48;2.75;;;1.98;;
72676;SDS011;60755;51.374;10.662;2023-08-07T08:37:15;1.90;;;1.80;;
72676;SDS011;60755;51.374;10.662;2023-08-07T08:39:42;1.63;;;1.63;;
72676;SDS011;60755;51.374;10.662;2023-08-07T08:42:10;1.75;;;1.65;;
72676;SDS011;60755;51.374;10.662;2023-08-07T08:44:39;1.80;;;1.80;;
72676;SDS011;60755;51.374;10.662;2023-08-07T08:47:06;2.00;;;1.90;;
72676;SDS011;60755;51.374;10.662;2023-08-07T08:49:37;1.75;;;1.70;;
72676;SDS011;60755;51.374;10.662;2023-08-07T08:52:12;1.88;;;1.88;;
72676;SDS011;60755;51.374;10.662;2023-08-07T08:54:39;2.40;;;1.70;;
72676;SDS011;60755;51.374;10.662;2023-08-07T08:57:06;1.35;;;1.35;;
72676;SDS011;60755;51.374;10.662;2023-08-07T08:59:34;1.20;;;1.20;;
72676;SDS011;60755;51.374;10.662;2023-08-07T09:02:01;1.40;;;1.30;;
72676;SDS011;60755;51.374;10.662;2023-08-07T09:04:28;1.30;;;1.30;;
72676;SDS011;60755;51.374;10.662;2023-08-07T09:06:57;1.25;;;1.25;;
72676;SDS011;60755;51.374;10.662;2023-08-07T09:09:24;1.70;;;1.60;;
72676;SDS011;60755;51.374;10.662;2023-08-07T09:11:53;1.23;;;1.23;;
72676;SDS011;60755;51.374;10.662;2023-08-07T09:14:24;1.40;;;1.40;;
72676;SDS011;60755;51.374;10.662;2023-08-07T09:16:57;1.30;;;1.30;;
72676;SDS011;60755;51.374;10.662;2023-08-07T09:19:25;1.60;;;1.20;;
72676;SDS011;60755;51.374;10.662;2023-08-07T09:21:57;1.38;;;1.38;;
72676;SDS011;60755;51.374;10.662;2023-08-07T09:24:25;2.30;;;2.20;;
72676;SDS011;60755;51.374;10.662;2023-08-07T09:26:52;1.10;;;1.10;;
72676;SDS011;60755;51.374;10.662;2023-08-07T09:29:20;1.27;;;1.20;;
72676;SDS011;60755;51.374;10.662;2023-08-07T09:31:47;1.95;;;1.85;;
72676;SDS011;60755;51.374;10.662;2023-08-07T09:34:14;1.17;;;1.13;;
72676;SDS011;60755;51.374;10.662;2023-08-07T09:36:43;1.30;;;1.20;;
72676;SDS011;60755;51.374;10.662;2023-08-07T09:39:11;1.73;;;1.20;;
72676;SDS011;60755;51.374;10.662;2023-08-07T09:41:40;1.85;;;1.42;;
72676;SDS011;60755;51.374;10.662;2023-08-07T09:44:07;0.90;;;0.90;;
72676;SDS011;60755;51.374;10.662;2023-08-07T09:46:40;1.17;;;1.08;;
72676;SDS011;60755;51.374;10.662;2023-08-07T09:49:08;0.98;;;0.98;;
72676;SDS011;60755;51.374;10.662;2023-08-07T09:51:40;1.92;;;1.08;;
72676;SDS011;60755;51.374;10.662;2023-08-07T09:54:08;0.90;;;0.90;;
72676;SDS011;60755;51.374;10.662;2023-08-07T09:56:37;0.80;;;0.80;;
72676;SDS011;60755;51.374;10.662;2023-08-07T09:59:04;2.03;;;1.95;;
72676;SDS011;60755;51.374;10.662;2023-08-07T10:01:31;0.70;;;0.70;;
72676;SDS011;60755;51.374;10.662;2023-08-07T10:03:58;0.93;;;0.93;;
72676;SDS011;60755;51.374;10.662;2023-08-07T10:06:26;1.10;;;1.10;;
72676;SDS011;60755;51.374;10.662;2023-08-07T10:08:54;0.90;;;0.90;;
72676;SDS011;60755;51.374;10.662;2023-08-07T10:11:21;0.90;;;0.90;;
72676;SDS011;60755;51.374;10.662;2023-08-07T10:13:51;1.00;;;1.00;;
72676;SDS011;60755;51.374;10.662;2023-08-07T10:16:19;0.90;;;0.90;;
72676;SDS011;60755;51.374;10.662;2023-08-07T10:18:46;0.80;;;0.80;;
72676;SDS011;60755;51.374;10.662;2023-08-07T10:21:13;0.95;;;0.95;;
72676;SDS011;60755;51.374;10.662;2023-08-07T10:23:40;1.95;;;0.90;;
72676;SDS011;60755;51.374;10.662;2023-08-07T10:26:09;5.68;;;1.20;;
72676;SDS011;60755;51.374;10.662;2023-08-07T10:28:39;1.20;;;1.20;;
72676;SDS011;60755;51.374;10.662;2023-08-07T10:31:09;1.33;;;1.30;;
72676;SDS011;60755;51.374;10.662;2023-08-07T10:33:38;1.50;;;1.50;;
72676;SDS011;60755;51.374;10.662;2023-08-07T10:36:08;1.10;;;1.10;;
72676;SDS011;60755;51.374;10.662;2023-08-07T10:38:36;1.02;;;1.00;;
72676;SDS011;60755;51.374;10.662;2023-08-07T10:41:06;1.23;;;1.13;;
72676;SDS011;60755;51.374;10.662;2023-08-07T10:43:36;1.00;;;1.00;;
72676;SDS011;60755;51.374;10.662;2023-08-07T10:46:04;1.00;;;1.00;;
72676;SDS011;60755;51.374;10.662;2023-08-07T10:48:38;1.00;;;1.00;;
72676;SDS011;60755;51.374;10.662;2023-08-07T10:51:06;1.33;;;1.00;;
72676;SDS011;60755;51.374;10.662;2023-08-07T10:53:35;1.38;;;1.30;;
72676;SDS011;60755;51.374;10.662;2023-08-07T10:56:09;1.00;;;1.00;;
72676;SDS011;60755;51.374;10.662;2023-08-07T10:58:38;1.10;;;1.10;;
72676;SDS011;60755;51.374;10.662;2023-08-07T11:01:15;1.10;;;1.10;;
72676;SDS011;60755;51.374;10.662;2023-08-07T11:03:47;1.10;;;1.10;;
72676;SDS011;60755;51.374;10.662;2023-08-07T11:06:15;1.45;;;1.40;;
72676;SDS011;60755;51.374;10.662;2023-08-07T11:08:43;3.25;;;1.40;;
72676;SDS011;60755;51.374;10.662;2023-08-07T11:11:10;2.58;;;1.42;;
72676;SDS011;60755;51.374;10.662;2023-08-07T11:13:37;1.20;;;1.10;;
72676;SDS011;60755;51.374;10.662;2023-08-07T11:16:04;1.48;;;1.20;;
72676;SDS011;60755;51.374;10.662;2023-08-07T11:18:33;1.63;;;1.52;;
72676;SDS011;60755;51.374;10.662;2023-08-07T11:21:15;1.42;;;1.33;;
72676;SDS011;60755;51.374;10.662;2023-08-07T11:23:44;1.38;;;1.27;;
72676;SDS011;60755;51.374;10.662;2023-08-07T11:26:11;1.58;;;1.23;;
72676;SDS011;60755;51.374;10.662;2023-08-07T11:28:41;1.58;;;1.48;;
72676;SDS011;60755;51.374;10.662;2023-08-07T11:31:11;1.30;;;1.30;;
72676;SDS011;60755;51.374;10.662;2023-08-07T11:33:39;1.45;;;1.45;;
72676;SDS011;60755;51.374;10.662;2023-08-07T11:36:09;2.03;;;1.55;;
72676;SDS011;60755;51.374;10.662;2023-08-07T11:38:39;2.45;;;1.65;;
72676;SDS011;60755;51.374;10.662;2023-08-07T11:41:08;2.45;;;1.60;;
72676;SDS011;60755;51.374;10.662;2023-08-07T11:43:36;1.88;;;1.83;;
72676;SDS011;60755;51.374;10.662;2023-08-07T11:46:04;1.73;;;1.60;;
72676;SDS011;60755;51.374;10.662;2023-08-07T11:48:33;2.35;;;2.25;;
72676;SDS011;60755;51.374;10.662;2023-08-07T11:51:02;2.72;;;2.53;;
72676;SDS011;60755;51.374;10.662;2023-08-07T11:53:30;1.88;;;1.77;;
72676;SDS011;60755;51.374;10.662;2023-08-07T11:56:00;1.98;;;1.88;;
72676;SDS011;60755;51.374;10.662;2023-08-07T11:58:33;2.00;;;1.83;;
72676;SDS011;60755;51.374;10.662;2023-08-07T12:01:03;3.92;;;2.00;;
72676;SDS011;60755;51.374;10.662;2023-08-07T12:03:31;1.63;;;1.63;;
72676;SDS011;60755;51.374;10.662;2023-08-07T12:06:02;1.88;;;1.77;;
72676;SDS011;60755;51.374;10.662;2023-08-07T12:08:33;1.75;;;1.65;;
72676;SDS011;60755;51.374;10.662;2023-08-07T12:11:03;1.50;;;1.50;;
72676;SDS011;60755;51.374;10.662;2023-08-07T12:13:31;1.90;;;1.80;;
72676;SDS011;60755;51.374;10.662;2023-08-07T12:16:00;1.70;;;1.60;;
72676;SDS011;60755;51.374;10.662;2023-08-07T12:18:29;2.05;;;1.92;;
72676;SDS011;60755;51.374;10.662;2023-08-07T12:20:58;3.20;;;1.70;;
72676;SDS011;60755;51.374;10.662;2023-08-07T12:23:26;2.97;;;1.88;;
72676;SDS011;60755;51.374;10.662;2023-08-07T12:25:53;1.90;;;1.80;;
72676;SDS011;60755;51.374;10.662;2023-08-07T12:28:22;1.77;;;1.55;;
72676;SDS011;60755;51.374;10.662;2023-08-07T12:30:50;1.58;;;1.58;;
72676;SDS011;60755;51.374;10.662;2023-08-07T12:33:18;1.45;;;1.45;;
72676;SDS011;60755;51.374;10.662;2023-08-07T12:35:45;1.38;;;1.38;;
72676;SDS011;60755;51.374;10.662;2023-08-07T12:38:12;1.50;;;1.40;;
72676;SDS011;60755;51.374;10.662;2023-08-07T12:40:40;1.30;;;1.20;;
72676;SDS011;60755;51.374;10.662;2023-08-07T12:43:07;1.15;;;1.10;;
72676;SDS011;60755;51.374;10.662;2023-08-07T12:45:36;2.00;;;1.35;;
72676;SDS011;60755;51.374;10.662;2023-08-07T12:48:03;1.40;;;1.10;;
72676;SDS011;60755;51.374;10.662;2023-08-07T12:50:30;1.20;;;1.20;;
72676;SDS011;60755;51.374;10.662;2023-08-07T12:52:57;1.48;;;1.40;;
72676;SDS011;60755;51.374;10.662;2023-08-07T12:55:25;1.70;;;1.05;;
72676;SDS011;60755;51.374;10.662;2023-08-07T12:57:53;1.38;;;1.35;;
72676;SDS011;60755;51.374;10.662;2023-08-07T13:00:21;2.05;;;1.42;;
72676;SDS011;60755;51.374;10.662;2023-08-07T13:02:50;1.30;;;1.30;;
72676;SDS011;60755;51.374;10.662;2023-08-07T13:05:18;1.45;;;1.33;;
72676;SDS011;60755;51.374;10.662;2023-08-07T13:07:46;1.35;;;1.35;;
72676;SDS011;60755;51.374;10.662;2023-08-07T13:10:14;4.03;;;1.50;;
72676;SDS011;60755;51.374;10.662;2023-08-07T13:12:42;4.18;;;3.75;;
72676;SDS011;60755;51.374;10.662;2023-08-07T13:15:11;1.90;;;1.80;;
72676;SDS011;60755;51.374;10.662;2023-08-07T13:17:39;1.73;;;1.48;;
72676;SDS011;60755;51.374;10.662;2023-08-07T13:20:09;1.10;;;1.10;;
72676;SDS011;60755;51.374;10.662;2023-08-07T13:22:38;2.80;;;1.30;;
72676;SDS011;60755;51.374;10.662;2023-08-07T13:25:07;1.10;;;1.10;;
72676;SDS011;60755;51.374;10.662;2023-08-07T13:27:35;2.00;;;1.20;;
72676;SDS011;60755;51.374;10.662;2023-08-07T13:30:02;1.63;;;1.45;;
72676;SDS011;60755;51.374;10.662;2023-08-07T13:32:31;1.30;;;1.20;;
72676;SDS011;60755;51.374;10.662;2023-08-07T13:34:58;1.40;;;1.30;;
72676;SDS011;60755;51.374;10.662;2023-08-07T13:37:26;3.13;;;1.48;;
72676;SDS011;60755;51.374;10.662;2023-08-07T13:39:53;2.40;;;1.65;;
72676;SDS011;60755;51.374;10.662;2023-08-07T13:42:23;2.03;;;1.60;;
72676;SDS011;60755;51.374;10.662;2023-08-07T13:44:50;1.70;;;1.60;;
72676;SDS011;60755;51.374;10.662;2023-08-07T13:47:17;3.38;;;1.75;;
72676;SDS011;60755;51.374;10.662;2023-08-07T13:49:46;3.53;;;1.90;;
72676;SDS011;60755;51.374;10.662;2023-08-07T13:52:13;1.90;;;1.80;;
72676;SDS011;60755;51.374;10.662;2023-08-07T13:54:42;2.92;;;1.65;;
72676;SDS011;60755;51.374;10.662;2023-08-07T13:57:09;1.70;;;1.60;;
72676;SDS011;60755;51.374;10.662;2023-08-07T13:59:36;2.63;;;1.63;;
72676;SDS011;60755;51.374;10.662;2023-08-07T14:02:03;2.83;;;2.17;;
72676;SDS011;60755;51.374;10.662;2023-08-07T14:04:30;3.80;;;2.13;;
72676;SDS011;60755;51.374;10.662;2023-08-07T14:06:57;3.63;;;2.00;;
72676;SDS011;60755;51.374;10.662;2023-08-07T14:09:24;2.40;;;2.20;;
72676;SDS011;60755;51.374;10.662;2023-08-07T14:11:52;2.50;;;2.30;;
72676;SDS011;60755;51.374;10.662;2023-08-07T14:14:21;6.63;;;2.33;;
72676;SDS011;60755;51.374;10.662;2023-08-07T14:16:48;3.20;;;2.17;;
72676;SDS011;60755;51.374;10.662;2023-08-07T14:19:15;4.40;;;2.20;;
72676;SDS011;60755;51.374;10.662;2023-08-07T14:21:42;3.85;;;2.25;;
72676;SDS011;60755;51.374;10.662;2023-08-07T14:24:09;3.37;;;2.40;;
72676;SDS011;60755;51.374;10.662;2023-08-07T14:26:36;4.80;;;2.40;;
72676;SDS011;60755;51.374;10.662;2023-08-07T14:29:03;9.75;;;2.53;;
72676;SDS011;60755;51.374;10.662;2023-08-07T14:31:30;6.65;;;3.22;;
72676;SDS011;60755;51.374;10.662;2023-08-07T14:33:57;4.20;;;2.28;;
72676;SDS011;60755;51.374;10.662;2023-08-07T14:36:24;5.50;;;2.50;;
72676;SDS011;60755;51.374;10.662;2023-08-07T14:38:51;6.68;;;2.70;;